sensor_id;sensor_type;location;lat;lon;timestamp;temperature;humidity
25668;DHT22;18003;-33.830;151.202;2022-08-20T00:01:00;13.80;99.90
25668;DHT22;18003;-33.830;151.202;2022-08-20T00:03:32;13.80;99.90
25668;DHT22;18003;-33.830;151.202;2022-08-20T00:06:05;13.80;99.90
25668;DHT22;18003;-33.830;151.202;2022-08-20T00:08:32;13.80;99.90
25668;DHT22;18003;-33.830;151.202;2022-08-20T00:11:03;13.90;99.90
25668;DHT22;18003;-33.830;151.202;2022-08-20T00:13:36;13.90;99.90
25668;DHT22;18003;-33.830;151.202;2022-08-20T00:16:07;13.90;99.90
25668;DHT22;18003;-33.830;151.202;2022-08-20T00:18:37;13.90;99.90
25668;DHT22;18003;-33.830;151.202;2022-08-20T00:21:09;14.00;99.90
25668;DHT22;18003;-33.830;151.202;2022-08-20T00:23:44;14.00;99.90
25668;DHT22;18003;-33.830;151.202;2022-08-20T00:26:15;14.00;99.90
25668;DHT22;18003;-33.830;151.202;2022-08-20T00:28:45;14.00;99.90
25668;DHT22;18003;-33.830;151.202;2022-08-20T00:31:17;14.00;99.90
25668;DHT22;18003;-33.830;151.202;2022-08-20T00:33:50;14.00;99.90
25668;DHT22;18003;-33.830;151.202;2022-08-20T00:36:21;14.00;99.90
25668;DHT22;18003;-33.830;151.202;2022-08-20T00:38:51;14.00;99.90
25668;DHT22;18003;-33.830;151.202;2022-08-20T00:41:23;14.10;99.90
25668;DHT22;18003;-33.830;151.202;2022-08-20T00:46:31;14.10;99.90
25668;DHT22;18003;-33.830;151.202;2022-08-20T00:49:03;14.10;99.90
25668;DHT22;18003;-33.830;151.202;2022-08-20T00:51:41;14.20;99.90
25668;DHT22;18003;-33.830;151.202;2022-08-20T00:54:31;14.10;99.90
25668;DHT22;18003;-33.830;151.202;2022-08-20T00:57:02;14.20;99.90
25668;DHT22;18003;-33.830;151.202;2022-08-20T00:59:30;14.20;99.90
25668;DHT22;18003;-33.830;151.202;2022-08-20T01:02:02;14.30;99.90
25668;DHT22;18003;-33.830;151.202;2022-08-20T01:04:32;14.30;99.90
25668;DHT22;18003;-33.830;151.202;2022-08-20T01:07:03;14.30;99.90
25668;DHT22;18003;-33.830;151.202;2022-08-20T01:09:35;14.30;99.90
25668;DHT22;18003;-33.830;151.202;2022-08-20T01:12:07;14.30;99.90
25668;DHT22;18003;-33.830;151.202;2022-08-20T01:14:39;14.30;99.90
25668;DHT22;18003;-33.830;151.202;2022-08-20T01:17:20;14.40;99.90
25668;DHT22;18003;-33.830;151.202;2022-08-20T01:20:00;14.30;99.90
25668;DHT22;18003;-33.830;151.202;2022-08-20T01:22:31;14.40;99.90
25668;DHT22;18003;-33.830;151.202;2022-08-20T01:25:25;14.40;99.90
25668;DHT22;18003;-33.830;151.202;2022-08-20T01:27:49;14.40;99.90
25668;DHT22;18003;-33.830;151.202;2022-08-20T01:30:20;14.30;99.90
25668;DHT22;18003;-33.830;151.202;2022-08-20T01:32:50;14.40;99.90
25668;DHT22;18003;-33.830;151.202;2022-08-20T01:35:24;14.40;99.90
25668;DHT22;18003;-33.830;151.202;2022-08-20T01:37:54;14.40;99.90
25668;DHT22;18003;-33.830;151.202;2022-08-20T01:43:21;14.40;99.90
25668;DHT22;18003;-33.830;151.202;2022-08-20T01:45:51;14.40;99.90
25668;DHT22;18003;-33.830;151.202;2022-08-20T01:48:22;14.40;99.90
25668;DHT22;18003;-33.830;151.202;2022-08-20T01:51:07;14.40;99.90
25668;DHT22;18003;-33.830;151.202;2022-08-20T01:53:38;14.40;99.90
25668;DHT22;18003;-33.830;151.202;2022-08-20T01:56:10;14.40;99.90
25668;DHT22;18003;-33.830;151.202;2022-08-20T01:58:44;14.40;99.90
25668;DHT22;18003;-33.830;151.202;2022-08-20T02:01:27;14.50;99.90
25668;DHT22;18003;-33.830;151.202;2022-08-20T02:03:56;14.50;99.90
25668;DHT22;18003;-33.830;151.202;2022-08-20T02:06:29;14.40;99.90
25668;DHT22;18003;-33.830;151.202;2022-08-20T02:09:00;14.50;99.90
25668;DHT22;18003;-33.830;151.202;2022-08-20T02:11:31;14.50;99.90
25668;DHT22;18003;-33.830;151.202;2022-08-20T02:14:01;14.50;99.90
25668;DHT22;18003;-33.830;151.202;2022-08-20T02:16:34;14.50;99.90
25668;DHT22;18003;-33.830;151.202;2022-08-20T02:19:09;14.50;99.90
25668;DHT22;18003;-33.830;151.202;2022-08-20T02:21:42;14.50;99.90
25668;DHT22;18003;-33.830;151.202;2022-08-20T02:24:11;14.50;99.90
25668;DHT22;18003;-33.830;151.202;2022-08-20T02:26:42;14.50;99.90
25668;DHT22;18003;-33.830;151.202;2022-08-20T02:29:13;14.50;99.90
25668;DHT22;18003;-33.830;151.202;2022-08-20T02:31:44;14.50;99.90
25668;DHT22;18003;-33.830;151.202;2022-08-20T02:34:14;14.50;99.90
25668;DHT22;18003;-33.830;151.202;2022-08-20T02:36:44;14.50;99.90
25668;DHT22;18003;-33.830;151.202;2022-08-20T02:39:16;14.50;99.90
25668;DHT22;18003;-33.830;151.202;2022-08-20T02:41:46;14.50;99.90
25668;DHT22;18003;-33.830;151.202;2022-08-20T02:44:18;14.50;99.90
25668;DHT22;18003;-33.830;151.202;2022-08-20T02:46:48;14.50;99.90
25668;DHT22;18003;-33.830;151.202;2022-08-20T02:49:19;14.50;99.90
25668;DHT22;18003;-33.830;151.202;2022-08-20T02:51:49;14.60;99.90
25668;DHT22;18003;-33.830;151.202;2022-08-20T02:54:19;14.50;99.90
25668;DHT22;18003;-33.830;151.202;2022-08-20T02:56:50;14.50;99.90
25668;DHT22;18003;-33.830;151.202;2022-08-20T02:59:20;14.50;99.90
25668;DHT22;18003;-33.830;151.202;2022-08-20T03:01:50;14.50;99.90
25668;DHT22;18003;-33.830;151.202;2022-08-20T03:04:21;14.50;99.90
25668;DHT22;18003;-33.830;151.202;2022-08-20T03:06:50;14.50;99.90
25668;DHT22;18003;-33.830;151.202;2022-08-20T03:09:21;14.50;99.90
25668;DHT22;18003;-33.830;151.202;2022-08-20T03:11:51;14.40;99.90
25668;DHT22;18003;-33.830;151.202;2022-08-20T03:14:21;14.50;99.90
25668;DHT22;18003;-33.830;151.202;2022-08-20T03:16:51;14.50;99.90
25668;DHT22;18003;-33.830;151.202;2022-08-20T03:19:22;14.50;99.90
25668;DHT22;18003;-33.830;151.202;2022-08-20T03:21:52;14.50;99.90
25668;DHT22;18003;-33.830;151.202;2022-08-20T03:24:22;14.50;99.90
25668;DHT22;18003;-33.830;151.202;2022-08-20T03:26:52;14.50;99.90
25668;DHT22;18003;-33.830;151.202;2022-08-20T03:29:22;14.50;99.90
25668;DHT22;18003;-33.830;151.202;2022-08-20T03:31:52;14.50;99.90
25668;DHT22;18003;-33.830;151.202;2022-08-20T03:34:22;14.50;99.90
25668;DHT22;18003;-33.830;151.202;2022-08-20T03:36:52;14.50;99.90
25668;DHT22;18003;-33.830;151.202;2022-08-20T03:39:22;14.50;99.90
25668;DHT22;18003;-33.830;151.202;2022-08-20T03:41:52;14.50;99.90
25668;DHT22;18003;-33.830;151.202;2022-08-20T03:44:23;14.50;99.90
25668;DHT22;18003;-33.830;151.202;2022-08-20T03:46:53;14.50;99.90
25668;DHT22;18003;-33.830;151.202;2022-08-20T03:49:23;14.50;99.90
25668;DHT22;18003;-33.830;151.202;2022-08-20T03:51:53;14.50;99.90
25668;DHT22;18003;-33.830;151.202;2022-08-20T03:54:23;14.50;99.90
25668;DHT22;18003;-33.830;151.202;2022-08-20T03:56:53;14.50;99.90
25668;DHT22;18003;-33.830;151.202;2022-08-20T03:59:23;14.50;99.90
25668;DHT22;18003;-33.830;151.202;2022-08-20T04:01:53;14.50;99.90
25668;DHT22;18003;-33.830;151.202;2022-08-20T04:04:24;14.50;99.90
25668;DHT22;18003;-33.830;151.202;2022-08-20T04:06:53;14.50;99.90
25668;DHT22;18003;-33.830;151.202;2022-08-20T04:09:24;14.50;99.90
25668;DHT22;18003;-33.830;151.202;2022-08-20T04:11:54;14.60;99.90
25668;DHT22;18003;-33.830;151.202;2022-08-20T04:14:25;14.60;99.90
25668;DHT22;18003;-33.830;151.202;2022-08-20T04:16:55;14.60;99.90
25668;DHT22;18003;-33.830;151.202;2022-08-20T04:19:25;14.60;99.90
25668;DHT22;18003;-33.830;151.202;2022-08-20T04:21:56;14.60;99.90
25668;DHT22;18003;-33.830;151.202;2022-08-20T04:24:26;14.60;99.90
25668;DHT22;18003;-33.830;151.202;2022-08-20T04:26:56;14.60;99.90
25668;DHT22;18003;-33.830;151.202;2022-08-20T04:29:26;14.60;99.90
25668;DHT22;18003;-33.830;151.202;2022-08-20T04:31:56;14.60;99.90
25668;DHT22;18003;-33.830;151.202;2022-08-20T04:34:27;14.60;99.90
25668;DHT22;18003;-33.830;151.202;2022-08-20T04:36:58;14.60;99.90
25668;DHT22;18003;-33.830;151.202;2022-08-20T04:39:28;14.60;99.90
25668;DHT22;18003;-33.830;151.202;2022-08-20T04:41:59;14.60;99.90
25668;DHT22;18003;-33.830;151.202;2022-08-20T04:44:29;14.60;99.90
25668;DHT22;18003;-33.830;151.202;2022-08-20T04:46:59;14.60;99.90
25668;DHT22;18003;-33.830;151.202;2022-08-20T04:49:29;14.70;99.90
25668;DHT22;18003;-33.830;151.202;2022-08-20T04:51:59;14.70;99.90
25668;DHT22;18003;-33.830;151.202;2022-08-20T04:54:30;14.70;99.90
25668;DHT22;18003;-33.830;151.202;2022-08-20T04:57:01;14.70;99.90
25668;DHT22;18003;-33.830;151.202;2022-08-20T04:59:31;14.70;99.90
25668;DHT22;18003;-33.830;151.202;2022-08-20T05:02:01;14.80;99.90
25668;DHT22;18003;-33.830;151.202;2022-08-20T05:04:31;14.80;99.90
25668;DHT22;18003;-33.830;151.202;2022-08-20T05:07:01;14.80;99.90
25668;DHT22;18003;-33.830;151.202;2022-08-20T05:09:31;14.80;99.90
25668;DHT22;18003;-33.830;151.202;2022-08-20T05:12:02;14.80;99.90
25668;DHT22;18003;-33.830;151.202;2022-08-20T05:14:32;14.80;99.90
25668;DHT22;18003;-33.830;151.202;2022-08-20T05:17:05;14.80;99.90
25668;DHT22;18003;-33.830;151.202;2022-08-20T05:19:35;14.90;99.90
25668;DHT22;18003;-33.830;151.202;2022-08-20T05:22:06;14.90;99.90
25668;DHT22;18003;-33.830;151.202;2022-08-20T05:24:37;14.80;99.90
25668;DHT22;18003;-33.830;151.202;2022-08-20T05:27:07;14.90;99.90
25668;DHT22;18003;-33.830;151.202;2022-08-20T05:29:37;14.80;99.90
25668;DHT22;18003;-33.830;151.202;2022-08-20T05:32:09;14.90;99.90
25668;DHT22;18003;-33.830;151.202;2022-08-20T05:34:39;14.90;99.90
25668;DHT22;18003;-33.830;151.202;2022-08-20T05:37:10;14.90;99.90
25668;DHT22;18003;-33.830;151.202;2022-08-20T05:39:40;14.90;99.90
25668;DHT22;18003;-33.830;151.202;2022-08-20T05:42:11;14.90;99.90
25668;DHT22;18003;-33.830;151.202;2022-08-20T05:44:41;14.90;99.90
25668;DHT22;18003;-33.830;151.202;2022-08-20T05:47:12;14.90;99.90
25668;DHT22;18003;-33.830;151.202;2022-08-20T05:49:42;14.90;99.90
25668;DHT22;18003;-33.830;151.202;2022-08-20T05:52:13;14.90;99.90
25668;DHT22;18003;-33.830;151.202;2022-08-20T05:54:44;14.90;99.90
25668;DHT22;18003;-33.830;151.202;2022-08-20T05:57:18;14.90;99.90
25668;DHT22;18003;-33.830;151.202;2022-08-20T05:59:47;14.90;99.90
25668;DHT22;18003;-33.830;151.202;2022-08-20T06:02:18;14.90;99.90
25668;DHT22;18003;-33.830;151.202;2022-08-20T06:05:05;14.90;99.90
25668;DHT22;18003;-33.830;151.202;2022-08-20T06:07:36;14.90;99.90
25668;DHT22;18003;-33.830;151.202;2022-08-20T06:10:07;14.90;99.90
25668;DHT22;18003;-33.830;151.202;2022-08-20T06:12:38;15.00;99.90
25668;DHT22;18003;-33.830;151.202;2022-08-20T06:15:08;15.00;99.90
25668;DHT22;18003;-33.830;151.202;2022-08-20T06:17:39;15.00;99.90
25668;DHT22;18003;-33.830;151.202;2022-08-20T06:20:10;14.90;99.90
25668;DHT22;18003;-33.830;151.202;2022-08-20T06:22:40;14.90;99.90
25668;DHT22;18003;-33.830;151.202;2022-08-20T06:25:10;14.90;99.90
25668;DHT22;18003;-33.830;151.202;2022-08-20T06:27:42;14.90;99.90
25668;DHT22;18003;-33.830;151.202;2022-08-20T06:30:13;14.90;99.90
25668;DHT22;18003;-33.830;151.202;2022-08-20T06:32:43;14.90;99.90
25668;DHT22;18003;-33.830;151.202;2022-08-20T06:35:13;14.90;99.90
25668;DHT22;18003;-33.830;151.202;2022-08-20T06:37:43;14.90;99.90
25668;DHT22;18003;-33.830;151.202;2022-08-20T06:40:15;14.90;99.90
25668;DHT22;18003;-33.830;151.202;2022-08-20T06:42:44;14.80;99.90
25668;DHT22;18003;-33.830;151.202;2022-08-20T06:45:16;14.90;99.90
25668;DHT22;18003;-33.830;151.202;2022-08-20T06:47:46;15.30;99.90
25668;DHT22;18003;-33.830;151.202;2022-08-20T06:50:18;15.50;99.90
25668;DHT22;18003;-33.830;151.202;2022-08-20T06:52:48;15.80;99.90
25668;DHT22;18003;-33.830;151.202;2022-08-20T06:55:18;16.00;99.90
25668;DHT22;18003;-33.830;151.202;2022-08-20T06:57:54;16.10;99.90
25668;DHT22;18003;-33.830;151.202;2022-08-20T07:00:19;16.10;99.90
25668;DHT22;18003;-33.830;151.202;2022-08-20T07:02:49;16.20;99.90
25668;DHT22;18003;-33.830;151.202;2022-08-20T07:05:19;16.40;99.90
25668;DHT22;18003;-33.830;151.202;2022-08-20T07:07:49;16.40;99.90
25668;DHT22;18003;-33.830;151.202;2022-08-20T07:10:20;16.50;99.90
25668;DHT22;18003;-33.830;151.202;2022-08-20T07:12:51;16.50;99.90
25668;DHT22;18003;-33.830;151.202;2022-08-20T07:15:22;16.60;99.90
25668;DHT22;18003;-33.830;151.202;2022-08-20T07:17:57;16.50;99.90
25668;DHT22;18003;-33.830;151.202;2022-08-20T07:20:22;16.50;99.90
25668;DHT22;18003;-33.830;151.202;2022-08-20T07:22:53;16.50;99.90
25668;DHT22;18003;-33.830;151.202;2022-08-20T07:25:23;16.50;99.90
25668;DHT22;18003;-33.830;151.202;2022-08-20T07:27:57;16.50;99.90
25668;DHT22;18003;-33.830;151.202;2022-08-20T07:30:26;16.40;99.90
25668;DHT22;18003;-33.830;151.202;2022-08-20T07:33:13;16.40;99.90
25668;DHT22;18003;-33.830;151.202;2022-08-20T07:35:43;16.40;99.90
25668;DHT22;18003;-33.830;151.202;2022-08-20T07:38:16;16.40;99.90
25668;DHT22;18003;-33.830;151.202;2022-08-20T07:40:47;16.40;99.90
25668;DHT22;18003;-33.830;151.202;2022-08-20T07:43:17;16.40;99.90
25668;DHT22;18003;-33.830;151.202;2022-08-20T07:45:53;16.40;99.90
25668;DHT22;18003;-33.830;151.202;2022-08-20T07:48:20;16.40;99.90
25668;DHT22;18003;-33.830;151.202;2022-08-20T07:50:53;16.40;99.90
25668;DHT22;18003;-33.830;151.202;2022-08-20T07:53:24;16.40;99.90
25668;DHT22;18003;-33.830;151.202;2022-08-20T07:55:54;16.40;99.90
25668;DHT22;18003;-33.830;151.202;2022-08-20T07:58:24;16.40;99.90
25668;DHT22;18003;-33.830;151.202;2022-08-20T08:00:54;16.40;99.90
25668;DHT22;18003;-33.830;151.202;2022-08-20T08:03:24;16.40;99.90
25668;DHT22;18003;-33.830;151.202;2022-08-20T08:05:55;16.40;99.90
25668;DHT22;18003;-33.830;151.202;2022-08-20T08:08:26;16.40;99.90
25668;DHT22;18003;-33.830;151.202;2022-08-20T08:10:58;16.40;99.90
25668;DHT22;18003;-33.830;151.202;2022-08-20T08:13:31;16.30;99.90
25668;DHT22;18003;-33.830;151.202;2022-08-20T08:16:01;16.30;99.90
25668;DHT22;18003;-33.830;151.202;2022-08-20T08:18:41;16.30;99.90
25668;DHT22;18003;-33.830;151.202;2022-08-20T08:21:11;16.30;99.90
25668;DHT22;18003;-33.830;151.202;2022-08-20T08:23:41;16.30;99.90
25668;DHT22;18003;-33.830;151.202;2022-08-20T08:26:15;16.30;99.90
25668;DHT22;18003;-33.830;151.202;2022-08-20T08:28:46;16.20;99.90
25668;DHT22;18003;-33.830;151.202;2022-08-20T08:31:16;16.20;99.90
25668;DHT22;18003;-33.830;151.202;2022-08-20T08:33:46;16.20;99.90
25668;DHT22;18003;-33.830;151.202;2022-08-20T08:36:16;16.20;99.90
25668;DHT22;18003;-33.830;151.202;2022-08-20T08:38:46;16.20;99.90
25668;DHT22;18003;-33.830;151.202;2022-08-20T08:43:50;16.10;99.90
25668;DHT22;18003;-33.830;151.202;2022-08-20T08:46:23;16.10;99.90
25668;DHT22;18003;-33.830;151.202;2022-08-20T08:48:53;16.10;99.90
25668;DHT22;18003;-33.830;151.202;2022-08-20T08:51:38;16.10;99.90
25668;DHT22;18003;-33.830;151.202;2022-08-20T08:54:07;16.10;99.90
25668;DHT22;18003;-33.830;151.202;2022-08-20T08:56:39;16.10;99.90
25668;DHT22;18003;-33.830;151.202;2022-08-20T08:59:09;16.10;99.90
25668;DHT22;18003;-33.830;151.202;2022-08-20T09:01:43;16.10;99.90
25668;DHT22;18003;-33.830;151.202;2022-08-20T09:04:15;16.00;99.90
25668;DHT22;18003;-33.830;151.202;2022-08-20T09:06:45;16.00;99.90
25668;DHT22;18003;-33.830;151.202;2022-08-20T09:09:20;16.00;99.90
25668;DHT22;18003;-33.830;151.202;2022-08-20T09:11:52;16.00;99.90
25668;DHT22;18003;-33.830;151.202;2022-08-20T09:14:21;15.90;99.90
25668;DHT22;18003;-33.830;151.202;2022-08-20T09:16:52;15.90;99.90
25668;DHT22;18003;-33.830;151.202;2022-08-20T09:19:22;15.90;99.90
25668;DHT22;18003;-33.830;151.202;2022-08-20T09:21:52;15.90;99.90
25668;DHT22;18003;-33.830;151.202;2022-08-20T09:24:22;15.90;99.90
25668;DHT22;18003;-33.830;151.202;2022-08-20T09:26:52;15.80;99.90
25668;DHT22;18003;-33.830;151.202;2022-08-20T09:29:22;15.80;99.90
25668;DHT22;18003;-33.830;151.202;2022-08-20T09:32:07;15.80;99.90
25668;DHT22;18003;-33.830;151.202;2022-08-20T09:34:38;15.80;99.90
25668;DHT22;18003;-33.830;151.202;2022-08-20T09:37:09;15.80;99.90
25668;DHT22;18003;-33.830;151.202;2022-08-20T09:39:39;15.80;99.90
25668;DHT22;18003;-33.830;151.202;2022-08-20T09:42:18;15.70;99.90
25668;DHT22;18003;-33.830;151.202;2022-08-20T09:44:48;15.70;99.90
25668;DHT22;18003;-33.830;151.202;2022-08-20T09:47:18;15.80;99.90
25668;DHT22;18003;-33.830;151.202;2022-08-20T09:49:48;15.70;99.90
25668;DHT22;18003;-33.830;151.202;2022-08-20T09:52:29;15.70;99.90
25668;DHT22;18003;-33.830;151.202;2022-08-20T09:54:56;15.70;99.90
25668;DHT22;18003;-33.830;151.202;2022-08-20T09:57:25;15.60;99.90
25668;DHT22;18003;-33.830;151.202;2022-08-20T10:00:03;15.60;99.90
25668;DHT22;18003;-33.830;151.202;2022-08-20T10:02:30;15.60;99.90
25668;DHT22;18003;-33.830;151.202;2022-08-20T10:05:01;15.60;99.90
25668;DHT22;18003;-33.830;151.202;2022-08-20T10:07:31;15.60;99.90
25668;DHT22;18003;-33.830;151.202;2022-08-20T10:10:02;15.60;99.90
25668;DHT22;18003;-33.830;151.202;2022-08-20T10:12:32;15.60;99.90
25668;DHT22;18003;-33.830;151.202;2022-08-20T10:15:02;15.60;99.90
25668;DHT22;18003;-33.830;151.202;2022-08-20T10:17:35;15.60;99.90
25668;DHT22;18003;-33.830;151.202;2022-08-20T10:20:03;15.50;99.90
25668;DHT22;18003;-33.830;151.202;2022-08-20T10:22:34;15.40;99.90
25668;DHT22;18003;-33.830;151.202;2022-08-20T10:25:05;15.30;99.90
25668;DHT22;18003;-33.830;151.202;2022-08-20T10:27:35;15.30;99.90
25668;DHT22;18003;-33.830;151.202;2022-08-20T10:30:06;15.20;99.90
25668;DHT22;18003;-33.830;151.202;2022-08-20T10:32:36;15.20;99.90
25668;DHT22;18003;-33.830;151.202;2022-08-20T10:35:07;15.20;99.90
25668;DHT22;18003;-33.830;151.202;2022-08-20T10:37:36;15.20;99.90
25668;DHT22;18003;-33.830;151.202;2022-08-20T10:40:07;15.20;99.90
25668;DHT22;18003;-33.830;151.202;2022-08-20T10:42:37;15.20;99.90
25668;DHT22;18003;-33.830;151.202;2022-08-20T10:45:13;15.20;99.90
25668;DHT22;18003;-33.830;151.202;2022-08-20T10:47:39;15.20;99.90
25668;DHT22;18003;-33.830;151.202;2022-08-20T10:50:11;15.20;99.90
25668;DHT22;18003;-33.830;151.202;2022-08-20T10:52:39;15.10;99.90
25668;DHT22;18003;-33.830;151.202;2022-08-20T10:55:10;15.10;99.90
25668;DHT22;18003;-33.830;151.202;2022-08-20T10:57:41;15.10;99.90
25668;DHT22;18003;-33.830;151.202;2022-08-20T11:00:13;15.00;99.90
25668;DHT22;18003;-33.830;151.202;2022-08-20T11:02:43;15.00;99.90
25668;DHT22;18003;-33.830;151.202;2022-08-20T11:05:13;15.00;99.90
25668;DHT22;18003;-33.830;151.202;2022-08-20T11:07:44;15.00;99.90
25668;DHT22;18003;-33.830;151.202;2022-08-20T11:10:14;15.00;99.90
25668;DHT22;18003;-33.830;151.202;2022-08-20T11:12:43;14.90;99.90
25668;DHT22;18003;-33.830;151.202;2022-08-20T11:15:13;14.90;99.90
25668;DHT22;18003;-33.830;151.202;2022-08-20T11:17:44;15.00;99.90
25668;DHT22;18003;-33.830;151.202;2022-08-20T11:20:16;14.90;99.90
25668;DHT22;18003;-33.830;151.202;2022-08-20T11:22:46;14.90;99.90
25668;DHT22;18003;-33.830;151.202;2022-08-20T11:25:16;14.90;99.90
25668;DHT22;18003;-33.830;151.202;2022-08-20T11:27:48;14.90;99.90
25668;DHT22;18003;-33.830;151.202;2022-08-20T11:30:23;14.90;99.90
25668;DHT22;18003;-33.830;151.202;2022-08-20T11:32:49;14.90;99.90
25668;DHT22;18003;-33.830;151.202;2022-08-20T11:35:20;14.90;99.90
25668;DHT22;18003;-33.830;151.202;2022-08-20T11:37:51;14.90;99.90
25668;DHT22;18003;-33.830;151.202;2022-08-20T11:40:21;14.90;99.90
25668;DHT22;18003;-33.830;151.202;2022-08-20T11:42:51;14.90;99.90
25668;DHT22;18003;-33.830;151.202;2022-08-20T11:45:21;14.90;99.90
25668;DHT22;18003;-33.830;151.202;2022-08-20T11:47:51;14.90;99.90
25668;DHT22;18003;-33.830;151.202;2022-08-20T11:50:21;14.90;99.90
25668;DHT22;18003;-33.830;151.202;2022-08-20T11:52:51;14.90;99.90
25668;DHT22;18003;-33.830;151.202;2022-08-20T11:55:21;14.90;99.90
25668;DHT22;18003;-33.830;151.202;2022-08-20T11:57:51;14.90;99.90
25668;DHT22;18003;-33.830;151.202;2022-08-20T12:00:22;14.90;99.90
25668;DHT22;18003;-33.830;151.202;2022-08-20T12:02:52;14.90;99.90
25668;DHT22;18003;-33.830;151.202;2022-08-20T12:05:22;14.90;99.90
25668;DHT22;18003;-33.830;151.202;2022-08-20T12:07:53;15.00;99.90
25668;DHT22;18003;-33.830;151.202;2022-08-20T12:10:23;14.90;99.90
25668;DHT22;18003;-33.830;151.202;2022-08-20T12:12:53;14.90;99.90
25668;DHT22;18003;-33.830;151.202;2022-08-20T12:15:23;15.00;99.90
25668;DHT22;18003;-33.830;151.202;2022-08-20T12:17:54;15.00;99.90
25668;DHT22;18003;-33.830;151.202;2022-08-20T12:20:24;15.00;99.90
25668;DHT22;18003;-33.830;151.202;2022-08-20T12:22:54;15.00;99.90
25668;DHT22;18003;-33.830;151.202;2022-08-20T12:25:26;15.00;99.90
25668;DHT22;18003;-33.830;151.202;2022-08-20T12:27:55;15.00;99.90
25668;DHT22;18003;-33.830;151.202;2022-08-20T12:30:26;15.00;99.90
25668;DHT22;18003;-33.830;151.202;2022-08-20T12:32:56;15.00;99.90
25668;DHT22;18003;-33.830;151.202;2022-08-20T12:35:26;15.00;99.90
25668;DHT22;18003;-33.830;151.202;2022-08-20T12:37:57;15.00;99.90
25668;DHT22;18003;-33.830;151.202;2022-08-20T12:40:28;15.00;99.90
25668;DHT22;18003;-33.830;151.202;2022-08-20T12:42:58;15.00;99.90
25668;DHT22;18003;-33.830;151.202;2022-08-20T12:45:28;15.00;99.90
25668;DHT22;18003;-33.830;151.202;2022-08-20T12:48:03;15.00;99.90
25668;DHT22;18003;-33.830;151.202;2022-08-20T12:50:34;15.00;99.90
25668;DHT22;18003;-33.830;151.202;2022-08-20T12:53:04;15.00;99.90
25668;DHT22;18003;-33.830;151.202;2022-08-20T12:55:34;15.00;99.90
25668;DHT22;18003;-33.830;151.202;2022-08-20T12:58:07;15.00;99.90
25668;DHT22;18003;-33.830;151.202;2022-08-20T13:00:36;15.00;99.90
25668;DHT22;18003;-33.830;151.202;2022-08-20T13:03:06;15.00;99.90
25668;DHT22;18003;-33.830;151.202;2022-08-20T13:05:36;15.00;99.90
25668;DHT22;18003;-33.830;151.202;2022-08-20T13:08:09;15.00;99.90
25668;DHT22;18003;-33.830;151.202;2022-08-20T13:10:41;15.00;99.90
25668;DHT22;18003;-33.830;151.202;2022-08-20T13:13:15;15.00;99.90
25668;DHT22;18003;-33.830;151.202;2022-08-20T13:15:45;15.00;99.90
25668;DHT22;18003;-33.830;151.202;2022-08-20T13:18:15;15.00;99.90
25668;DHT22;18003;-33.830;151.202;2022-08-20T13:20:45;15.00;99.90
25668;DHT22;18003;-33.830;151.202;2022-08-20T13:23:16;15.00;99.90
25668;DHT22;18003;-33.830;151.202;2022-08-20T13:25:46;15.00;99.90
25668;DHT22;18003;-33.830;151.202;2022-08-20T13:28:16;15.00;99.90
25668;DHT22;18003;-33.830;151.202;2022-08-20T13:30:46;15.00;99.90
25668;DHT22;18003;-33.830;151.202;2022-08-20T13:33:16;15.00;99.90
25668;DHT22;18003;-33.830;151.202;2022-08-20T13:35:46;15.00;99.90
25668;DHT22;18003;-33.830;151.202;2022-08-20T13:38:16;15.00;99.90
25668;DHT22;18003;-33.830;151.202;2022-08-20T13:40:47;15.00;99.90
25668;DHT22;18003;-33.830;151.202;2022-08-20T13:43:17;14.90;99.90
25668;DHT22;18003;-33.830;151.202;2022-08-20T13:45:48;14.90;99.90
25668;DHT22;18003;-33.830;151.202;2022-08-20T13:48:18;14.90;99.90
25668;DHT22;18003;-33.830;151.202;2022-08-20T13:50:48;14.90;99.90
25668;DHT22;18003;-33.830;151.202;2022-08-20T13:53:18;14.90;99.90
25668;DHT22;18003;-33.830;151.202;2022-08-20T13:55:48;14.90;99.90
25668;DHT22;18003;-33.830;151.202;2022-08-20T13:58:19;14.90;99.90
25668;DHT22;18003;-33.830;151.202;2022-08-20T14:00:50;14.90;99.90
25668;DHT22;18003;-33.830;151.202;2022-08-20T14:03:20;14.90;99.90
25668;DHT22;18003;-33.830;151.202;2022-08-20T14:05:50;14.90;99.90
25668;DHT22;18003;-33.830;151.202;2022-08-20T14:08:21;14.90;99.90
25668;DHT22;18003;-33.830;151.202;2022-08-20T14:10:51;14.90;99.90
25668;DHT22;18003;-33.830;151.202;2022-08-20T14:13:23;14.90;99.90
25668;DHT22;18003;-33.830;151.202;2022-08-20T14:15:54;14.90;99.90
25668;DHT22;18003;-33.830;151.202;2022-08-20T14:18:24;14.90;99.90
25668;DHT22;18003;-33.830;151.202;2022-08-20T14:20:54;14.90;99.90
25668;DHT22;18003;-33.830;151.202;2022-08-20T14:23:24;14.90;99.90
25668;DHT22;18003;-33.830;151.202;2022-08-20T14:25:54;14.90;99.90
25668;DHT22;18003;-33.830;151.202;2022-08-20T14:28:24;14.90;99.90
25668;DHT22;18003;-33.830;151.202;2022-08-20T14:30:54;14.90;99.90
25668;DHT22;18003;-33.830;151.202;2022-08-20T14:33:24;14.90;99.90
25668;DHT22;18003;-33.830;151.202;2022-08-20T14:35:54;14.90;99.90
25668;DHT22;18003;-33.830;151.202;2022-08-20T14:38:25;14.90;99.90
25668;DHT22;18003;-33.830;151.202;2022-08-20T14:40:55;14.90;99.90
25668;DHT22;18003;-33.830;151.202;2022-08-20T14:43:25;14.90;99.90
25668;DHT22;18003;-33.830;151.202;2022-08-20T14:45:55;14.90;99.90
25668;DHT22;18003;-33.830;151.202;2022-08-20T14:48:25;14.90;99.90
25668;DHT22;18003;-33.830;151.202;2022-08-20T14:50:55;14.90;99.90
25668;DHT22;18003;-33.830;151.202;2022-08-20T14:53:26;14.90;99.90
25668;DHT22;18003;-33.830;151.202;2022-08-20T14:55:56;14.90;99.90
25668;DHT22;18003;-33.830;151.202;2022-08-20T14:58:26;14.80;99.90
25668;DHT22;18003;-33.830;151.202;2022-08-20T15:00:56;14.80;99.90
25668;DHT22;18003;-33.830;151.202;2022-08-20T15:03:26;14.80;99.90
25668;DHT22;18003;-33.830;151.202;2022-08-20T15:05:58;14.80;99.90
25668;DHT22;18003;-33.830;151.202;2022-08-20T15:08:28;14.80;99.90
25668;DHT22;18003;-33.830;151.202;2022-08-20T15:10:58;14.80;99.90
25668;DHT22;18003;-33.830;151.202;2022-08-20T15:13:28;14.80;99.90
25668;DHT22;18003;-33.830;151.202;2022-08-20T15:15:58;14.80;99.90
25668;DHT22;18003;-33.830;151.202;2022-08-20T15:18:28;14.80;99.90